createdAt,value
2023-05-03T00:02:20.440Z,101880.45
2023-05-03T00:04:54.931Z,101881.52
2023-05-03T00:07:26.929Z,101884.57
2023-05-03T00:10:01.263Z,101884.56
2023-05-03T00:12:34.866Z,101885.67
2023-05-03T00:15:12.738Z,101885.99
2023-05-03T00:17:45.875Z,101884.66
2023-05-03T00:20:19.718Z,101888.20
2023-05-03T00:22:54.678Z,101891.10
2023-05-03T00:25:27.195Z,101888.16
2023-05-03T00:28:00.958Z,101889.08
2023-05-03T00:30:32.550Z,101895.60
2023-05-03T00:33:05.373Z,101902.98
2023-05-03T00:35:35.997Z,101906.15
2023-05-03T00:38:08.780Z,101908.51
2023-05-03T00:40:43.591Z,101904.21
2023-05-03T00:43:18.738Z,101903.83
2023-05-03T00:45:59.404Z,101901.13
2023-05-03T00:48:41.703Z,101903.42
2023-05-03T00:51:18.898Z,101903.43
2023-05-03T00:53:52.711Z,101901.59
2023-05-03T00:56:26.574Z,101906.58
2023-05-03T00:58:59.899Z,101908.01
2023-05-03T01:01:32.284Z,101908.01
2023-05-03T01:04:09.113Z,101905.73
2023-05-03T01:06:51.391Z,101911.34
2023-05-03T01:09:35.238Z,101910.71
2023-05-03T01:12:19.030Z,101911.45
2023-05-03T01:15:01.241Z,101911.19
2023-05-03T01:17:43.401Z,101912.67
2023-05-03T01:20:25.786Z,101912.25
2023-05-03T01:23:23.552Z,101911.98
2023-05-03T01:25:57.826Z,101919.41
2023-05-03T01:28:30.570Z,101918.98
2023-05-03T01:31:03.849Z,101920.10
2023-05-03T01:33:41.182Z,101927.62
2023-05-03T01:36:14.342Z,101926.91
2023-05-03T01:38:48.865Z,101926.95
2023-05-03T01:41:23.990Z,101922.11
2023-05-03T01:43:59.087Z,101925.31
2023-05-03T01:46:31.747Z,101930.75
2023-05-03T01:49:04.085Z,101932.47
2023-05-03T01:51:34.886Z,101931.91
2023-05-03T01:54:09.731Z,101935.74
2023-05-03T01:56:41.347Z,101938.75
2023-05-03T01:59:14.342Z,101936.96
2023-05-03T02:01:47.519Z,101936.27
2023-05-03T02:04:20.530Z,101935.55
2023-05-03T02:06:52.097Z,101940.84
2023-05-03T02:09:25.972Z,101939.17
2023-05-03T02:11:59.814Z,101936.08
2023-05-03T02:14:33.626Z,101932.80
2023-05-03T02:17:08.681Z,101933.91
2023-05-03T02:19:41.516Z,101930.35
2023-05-03T02:22:14.725Z,101930.84
2023-05-03T02:24:55.078Z,101933.14
2023-05-03T02:27:29.710Z,101934.44
2023-05-03T02:30:00.364Z,101930.27
2023-05-03T02:32:33.984Z,101934.57
2023-05-03T02:35:12.682Z,101933.30
2023-05-03T02:37:45.483Z,101935.98
2023-05-03T02:40:18.722Z,101934.34
2023-05-03T02:42:51.422Z,101935.48
2023-05-03T02:45:24.154Z,101937.91
2023-05-03T02:47:54.483Z,101940.11
2023-05-03T02:50:27.625Z,101940.70
2023-05-03T02:52:59.556Z,101943.17
2023-05-03T02:55:32.108Z,101944.51
2023-05-03T02:58:04.220Z,101944.41
2023-05-03T03:00:37.405Z,101946.07
2023-05-03T03:03:13.416Z,101947.54
2023-05-03T03:05:44.984Z,101949.23
2023-05-03T03:08:19.363Z,101951.06
2023-05-03T03:10:51.907Z,101952.75
2023-05-03T03:13:26.533Z,101959.23
2023-05-03T03:16:04.208Z,101959.21
2023-05-03T03:18:35.282Z,101957.13
2023-05-03T03:21:05.780Z,101956.37
2023-05-03T03:23:40.800Z,101959.23
2023-05-03T03:26:12.282Z,101962.80
2023-05-03T03:28:48.528Z,101963.21
2023-05-03T03:31:19.318Z,101968.95
2023-05-03T03:33:51.394Z,101967.16
2023-05-03T03:36:23.921Z,101970.80
2023-05-03T03:38:57.996Z,101971.72
2023-05-03T03:41:29.695Z,101976.73
2023-05-03T03:44:04.336Z,101974.84
2023-05-03T03:46:37.764Z,101976.98
2023-05-03T03:49:08.437Z,101982.77
2023-05-03T03:51:41.290Z,101983.45
2023-05-03T03:54:16.969Z,101979.52
2023-05-03T03:56:50.674Z,101985.42
2023-05-03T03:59:22.984Z,101984.63
2023-05-03T04:01:56.350Z,101985.76
2023-05-03T04:04:32.034Z,101984.58
2023-05-03T04:07:05.902Z,101987.85
2023-05-03T04:09:37.770Z,101992.55
2023-05-03T04:12:11.781Z,101992.59
2023-05-03T04:14:44.144Z,102000.32
2023-05-03T04:17:16.911Z,101999.05
2023-05-03T04:19:48.680Z,102001.30
2023-05-03T04:22:20.874Z,102005.90
2023-05-03T04:24:54.801Z,102005.55
2023-05-03T04:27:26.517Z,102008.55
2023-05-03T04:30:01.834Z,102009.02
2023-05-03T04:32:36.968Z,102010.02
2023-05-03T04:35:15.421Z,102011.69
2023-05-03T04:37:53.833Z,102014.10
2023-05-03T04:40:27.152Z,102018.05
2023-05-03T04:43:08.939Z,102020.90
2023-05-03T04:45:42.658Z,102023.95
2023-05-03T04:48:18.639Z,102023.78
2023-05-03T04:50:52.415Z,102027.79
2023-05-03T04:53:24.935Z,102027.40
2023-05-03T04:56:06.935Z,102028.38
2023-05-03T04:58:41.596Z,102036.53
2023-05-03T05:01:14.787Z,102038.99
2023-05-03T05:03:57.113Z,102041.05
2023-05-03T05:06:34.583Z,102042.55
2023-05-03T05:09:22.124Z,102042.75
2023-05-03T05:11:57.261Z,102044.42
2023-05-03T05:14:34.974Z,102045.19
2023-05-03T05:17:08.240Z,102048.27
2023-05-03T05:19:40.819Z,102054.05
2023-05-03T05:22:16.894Z,102054.11
2023-05-03T05:24:56.122Z,102056.30
2023-05-03T05:27:27.728Z,102058.98
2023-05-03T05:29:59.667Z,102057.45
2023-05-03T05:32:32.689Z,102056.48
2023-05-03T05:35:08.827Z,102056.54
2023-05-03T05:37:41.832Z,102057.08
2023-05-03T05:40:18.048Z,102057.59
2023-05-03T05:42:55.669Z,102056.98
2023-05-03T05:45:29.679Z,102061.33
2023-05-03T05:48:00.759Z,102061.92
2023-05-03T05:50:33.092Z,102065.07
2023-05-03T05:53:09.914Z,102066.93
2023-05-03T05:55:46.141Z,102067.71
2023-05-03T05:58:17.951Z,102067.31
2023-05-03T06:00:56.645Z,102068.10
2023-05-03T06:03:29.676Z,102074.09
2023-05-03T06:06:01.665Z,102076.98
2023-05-03T06:08:33.720Z,102079.88
2023-05-03T06:11:08.021Z,102082.75
2023-05-03T06:13:41.956Z,102084.33
2023-05-03T06:16:21.669Z,102080.21
2023-05-03T06:18:55.337Z,102083.68
2023-05-03T06:21:27.760Z,102086.50
2023-05-03T06:23:58.955Z,102082.98
2023-05-03T06:26:32.115Z,102084.93
2023-05-03T06:29:05.011Z,102078.30
2023-05-03T06:31:37.739Z,102078.85
2023-05-03T06:34:13.693Z,102078.20
2023-05-03T06:36:48.792Z,102076.78
2023-05-03T06:39:21.132Z,102079.34
2023-05-03T06:41:53.256Z,102080.75
2023-05-03T06:44:27.044Z,102081.60
2023-05-03T06:47:00.942Z,102081.93
2023-05-03T06:49:32.209Z,102081.63
2023-05-03T06:52:09.503Z,102087.42
2023-05-03T06:54:42.755Z,102083.38
2023-05-03T06:57:14.898Z,102087.73
2023-05-03T06:59:47.135Z,102089.94
2023-05-03T07:02:18.561Z,102088.51
2023-05-03T07:04:49.812Z,102090.45
2023-05-03T07:07:30.116Z,102089.60
2023-05-03T07:10:03.148Z,102087.63
2023-05-03T07:12:34.023Z,102088.14
2023-05-03T07:15:06.537Z,102087.24
2023-05-03T07:17:38.950Z,102090.60
2023-05-03T07:20:13.968Z,102087.03
2023-05-03T07:22:47.702Z,102092.01
2023-05-03T07:25:20.772Z,102088.79
2023-05-03T07:27:54.074Z,102086.23
2023-05-03T07:30:26.880Z,102088.30
2023-05-03T07:33:00.966Z,102089.48
2023-05-03T07:35:33.057Z,102085.14
2023-05-03T07:38:07.535Z,102084.71
2023-05-03T07:40:41.706Z,102093.10
2023-05-03T07:43:16.466Z,102094.81
2023-05-03T07:45:50.086Z,102095.96
2023-05-03T07:48:23.427Z,102098.02
2023-05-03T07:50:55.985Z,102100.64
2023-05-03T07:53:27.772Z,102095.34
2023-05-03T07:56:00.144Z,102092.45
2023-05-03T07:58:40.463Z,102093.88
2023-05-03T08:01:14.897Z,102089.11
2023-05-03T08:03:51.346Z,102096.95
2023-05-03T08:06:24.516Z,102096.04
2023-05-03T08:08:59.984Z,102093.13
2023-05-03T08:11:32.769Z,102087.95
2023-05-03T08:14:05.758Z,102086.55
2023-05-03T08:16:37.510Z,102088.48
2023-05-03T08:19:09.110Z,102092.09
2023-05-03T08:21:45.003Z,102091.30
2023-05-03T08:24:16.375Z,102095.79
2023-05-03T08:26:49.262Z,102091.35
2023-05-03T08:29:22.080Z,102096.79
2023-05-03T08:31:56.551Z,102093.10
2023-05-03T08:34:33.340Z,102099.64
2023-05-03T08:37:05.934Z,102099.72
2023-05-03T08:39:37.186Z,102098.64
2023-05-03T08:42:12.135Z,102097.32
2023-05-03T08:44:51.077Z,102094.73
2023-05-03T08:47:24.309Z,102096.04
2023-05-03T08:49:58.763Z,102099.11
2023-05-03T08:52:30.000Z,102096.75
2023-05-03T08:55:02.815Z,102096.80
2023-05-03T08:57:36.800Z,102102.88
2023-05-03T09:00:15.921Z,102097.38
2023-05-03T09:02:51.117Z,102095.56
2023-05-03T09:05:40.940Z,102093.73
2023-05-03T09:08:16.909Z,102097.40
2023-05-03T09:10:49.741Z,102094.59
2023-05-03T09:13:20.680Z,102089.86
2023-05-03T09:15:57.886Z,102093.77
2023-05-03T09:18:31.292Z,102091.80
2023-05-03T09:21:05.564Z,102091.84
2023-05-03T09:23:37.107Z,102087.45
2023-05-03T09:26:09.590Z,102086.96
2023-05-03T09:28:46.163Z,102088.39
2023-05-03T09:31:18.938Z,102094.96
2023-05-03T09:33:50.571Z,102093.52
2023-05-03T09:36:23.285Z,102091.77
2023-05-03T09:38:59.060Z,102087.19
2023-05-03T09:41:34.372Z,102084.89
2023-05-03T09:44:09.049Z,102076.88
2023-05-03T09:46:40.405Z,102081.17
2023-05-03T09:49:15.128Z,102084.25
2023-05-03T09:51:49.900Z,102079.08
2023-05-03T09:54:25.653Z,102083.70
2023-05-03T09:57:01.362Z,102088.39
2023-05-03T09:59:36.022Z,102085.18
2023-05-03T10:02:08.763Z,102084.98
2023-05-03T10:04:48.099Z,102081.99
2023-05-03T10:07:23.972Z,102086.25
2023-05-03T10:09:59.077Z,102082.91
2023-05-03T10:12:36.410Z,102081.00
2023-05-03T10:15:14.411Z,102074.31
2023-05-03T10:17:52.746Z,102068.70
2023-05-03T10:20:31.412Z,102059.14
2023-05-03T10:23:29.678Z,102060.11
2023-05-03T10:26:25.361Z,102060.73
2023-05-03T10:28:58.034Z,102066.83
2023-05-03T10:31:50.956Z,102066.77
2023-05-03T10:34:25.167Z,102065.70
2023-05-03T10:36:58.952Z,102062.00
2023-05-03T10:39:31.600Z,102054.60
2023-05-03T10:42:09.682Z,102051.27
2023-05-03T10:44:54.422Z,102048.13
2023-05-03T10:47:30.297Z,102055.48
2023-05-03T10:50:34.192Z,102060.44
2023-05-03T10:53:09.513Z,102057.52
2023-05-03T10:56:03.090Z,102059.38
2023-05-03T10:58:45.228Z,102056.04
2023-05-03T11:01:19.782Z,102049.76
2023-05-03T11:03:56.864Z,102052.27
2023-05-03T11:06:34.367Z,102049.67
2023-05-03T11:09:08.959Z,102055.63
2023-05-03T11:11:41.363Z,102048.42
2023-05-03T11:14:14.710Z,102049.98
2023-05-03T11:16:51.953Z,102056.02
2023-05-03T11:19:26.271Z,102059.59
2023-05-03T11:22:02.846Z,102059.95
2023-05-03T11:24:34.071Z,102063.08
2023-05-03T11:27:08.710Z,102066.02
2023-05-03T11:29:42.006Z,102066.31
2023-05-03T11:32:16.827Z,102067.73
2023-05-03T11:34:58.664Z,102061.52
2023-05-03T11:37:30.037Z,102063.41
2023-05-03T11:40:05.447Z,102058.57
2023-05-03T11:42:55.051Z,102059.31
2023-05-03T11:45:31.612Z,102065.73
2023-05-03T11:48:02.492Z,102065.00
2023-05-03T11:50:47.890Z,102065.23
2023-05-03T11:53:23.596Z,102066.66
2023-05-03T11:56:03.690Z,102065.97
2023-05-03T11:58:37.136Z,102057.95
2023-05-03T12:01:10.209Z,102057.77
2023-05-03T12:03:52.251Z,102050.28
2023-05-03T12:06:28.069Z,102059.09
2023-05-03T12:09:03.723Z,102055.60
2023-05-03T12:11:48.047Z,102054.00
2023-05-03T12:14:22.346Z,102059.23
2023-05-03T12:16:56.896Z,102056.06
2023-05-03T12:19:33.666Z,102050.55
2023-05-03T12:22:25.825Z,102052.90
2023-05-03T12:24:59.644Z,102056.14
2023-05-03T12:27:36.906Z,102053.40
2023-05-03T12:30:13.322Z,102049.25
2023-05-03T12:32:45.540Z,102051.95
2023-05-03T12:35:21.567Z,102047.69
2023-05-03T12:37:55.953Z,102055.02
2023-05-03T12:40:34.114Z,102054.94
2023-05-03T12:43:10.459Z,102054.91
2023-05-03T12:45:46.893Z,102057.56
2023-05-03T12:48:24.554Z,102062.09
2023-05-03T12:51:17.108Z,102062.35
2023-05-03T12:53:54.824Z,102062.35
2023-05-03T12:56:32.171Z,102062.38
2023-05-03T12:59:39.532Z,102060.74
2023-05-03T13:04:56.875Z,102053.05
2023-05-03T13:07:29.202Z,102051.91
2023-05-03T13:12:54.093Z,102050.66
2023-05-03T13:15:29.068Z,102044.05
2023-05-03T13:18:01.270Z,102045.39
2023-05-03T13:20:33.120Z,102043.70
2023-05-03T13:23:05.923Z,102044.80
2023-05-03T13:25:39.714Z,102047.86
2023-05-03T13:28:10.409Z,102044.54
2023-05-03T13:30:42.156Z,102046.41
2023-05-03T13:33:12.995Z,102045.90
2023-05-03T13:35:48.157Z,102045.05
2023-05-03T13:38:22.049Z,102041.80
2023-05-03T13:40:56.604Z,102040.67
2023-05-03T13:43:30.171Z,102042.32
2023-05-03T13:46:05.942Z,102045.77
2023-05-03T13:48:37.199Z,102041.96
2023-05-03T13:51:10.326Z,102035.11
2023-05-03T13:53:41.535Z,102030.13
2023-05-03T13:56:12.439Z,102025.95
2023-05-03T13:58:44.886Z,102022.39
2023-05-03T14:01:17.411Z,102025.48
2023-05-03T14:03:50.336Z,102023.80
2023-05-03T14:06:24.390Z,102021.02
2023-05-03T14:08:58.038Z,102019.55
2023-05-03T14:11:30.292Z,102019.50
2023-05-03T14:14:04.448Z,102021.13
2023-05-03T14:16:41.512Z,102020.65
2023-05-03T14:19:17.463Z,102017.83
2023-05-03T14:21:51.289Z,102021.96
2023-05-03T14:24:24.369Z,102029.20
2023-05-03T14:26:53.917Z,102025.63
2023-05-03T14:29:25.147Z,102021.52
2023-05-03T14:31:59.059Z,102021.50
2023-05-03T14:34:29.679Z,102020.88
2023-05-03T14:37:00.949Z,102020.14
2023-05-03T14:39:34.139Z,102019.95
2023-05-03T14:42:06.785Z,102016.55
2023-05-03T14:44:37.732Z,102010.19
2023-05-03T14:47:10.008Z,102015.36
2023-05-03T14:49:43.553Z,102014.61
2023-05-03T14:52:17.136Z,102019.23
2023-05-03T14:54:50.338Z,102023.05
2023-05-03T14:57:24.740Z,102024.52
2023-05-03T15:00:02.655Z,102021.62
2023-05-03T15:02:36.229Z,102021.46
2023-05-03T15:05:10.496Z,102020.98
2023-05-03T15:07:46.910Z,102019.34
2023-05-03T15:10:18.220Z,102025.05
2023-05-03T15:12:51.349Z,102027.15
2023-05-03T15:15:24.918Z,102027.44
2023-05-03T15:18:00.527Z,102027.84
2023-05-03T15:20:34.086Z,102026.89
2023-05-03T15:23:08.223Z,102028.45
2023-05-03T15:25:40.779Z,102026.78
2023-05-03T15:28:13.840Z,102029.52
2023-05-03T15:30:47.614Z,102030.15
2023-05-03T15:33:23.823Z,102032.97
2023-05-03T15:35:58.586Z,102030.60
2023-05-03T15:38:30.789Z,102029.05
2023-05-03T15:41:03.112Z,102030.77
2023-05-03T15:43:35.767Z,102027.09
2023-05-03T15:46:09.716Z,102028.49
2023-05-03T15:48:43.599Z,102028.39
2023-05-03T15:51:20.192Z,102028.42
2023-05-03T15:53:54.102Z,102028.31
2023-05-03T15:56:27.650Z,102033.11
2023-05-03T15:59:01.585Z,102028.73
2023-05-03T16:01:37.254Z,102029.29
2023-05-03T16:04:09.430Z,102031.91
2023-05-03T16:06:42.068Z,102024.96
2023-05-03T16:09:16.166Z,102027.58
2023-05-03T16:11:48.376Z,102025.66
2023-05-03T16:14:21.334Z,102025.02
2023-05-03T16:16:55.814Z,102023.10
2023-05-03T16:19:30.350Z,102025.90
2023-05-03T16:22:04.130Z,102028.98
2023-05-03T16:24:40.860Z,102022.05
2023-05-03T16:27:16.890Z,102026.27
2023-05-03T16:29:49.671Z,102027.27
2023-05-03T16:32:24.799Z,102024.83
2023-05-03T16:34:59.696Z,102025.52
2023-05-03T16:37:33.705Z,102019.73
2023-05-03T16:40:11.891Z,102023.75
2023-05-03T16:42:44.957Z,102023.54
2023-05-03T16:45:23.635Z,102024.10
2023-05-03T16:48:02.867Z,102022.23
2023-05-03T16:50:38.210Z,102021.27
2023-05-03T16:53:16.432Z,102019.71
2023-05-03T16:55:48.777Z,102016.81
2023-05-03T16:58:23.632Z,102015.54
2023-05-03T17:01:05.428Z,102016.02
2023-05-03T17:03:45.964Z,102017.84
2023-05-03T17:06:26.005Z,102020.59
2023-05-03T17:09:02.131Z,102021.55
2023-05-03T17:11:38.749Z,102024.06
2023-05-03T17:14:10.700Z,102023.17
2023-05-03T17:16:44.927Z,102027.77
2023-05-03T17:19:19.208Z,102027.59
2023-05-03T17:21:51.765Z,102025.18
2023-05-03T17:24:24.659Z,102027.32
2023-05-03T17:26:58.796Z,102026.77
2023-05-03T17:29:31.970Z,102026.02
2023-05-03T17:32:07.992Z,102027.42
2023-05-03T17:34:48.226Z,102031.95
2023-05-03T17:37:23.531Z,102028.41
2023-05-03T17:39:59.017Z,102032.14
2023-05-03T17:42:33.552Z,102037.11
2023-05-03T17:45:10.409Z,102036.34
2023-05-03T17:47:42.208Z,102037.02
2023-05-03T17:50:17.980Z,102037.23
2023-05-03T17:52:51.625Z,102039.58
2023-05-03T17:55:26.497Z,102041.42
2023-05-03T17:58:00.166Z,102040.15
2023-05-03T18:00:32.948Z,102040.86
2023-05-03T18:03:08.330Z,102044.86
2023-05-03T18:05:40.774Z,102047.44
2023-05-03T18:08:13.375Z,102049.34
2023-05-03T18:10:46.546Z,102046.70
2023-05-03T18:13:18.130Z,102047.20
2023-05-03T18:15:51.025Z,102046.55
2023-05-03T18:18:24.196Z,102047.39
2023-05-03T18:21:02.599Z,102048.60
2023-05-03T18:23:36.037Z,102046.81
2023-05-03T18:26:08.936Z,102048.52
2023-05-03T18:28:42.655Z,102049.52
2023-05-03T18:31:23.706Z,102052.39
2023-05-03T18:33:55.180Z,102051.43
2023-05-03T18:36:28.527Z,102053.88
2023-05-03T18:39:01.325Z,102055.20
2023-05-03T18:41:33.300Z,102058.33
2023-05-03T18:44:07.901Z,102064.29
2023-05-03T18:46:40.312Z,102068.72
2023-05-03T18:49:12.300Z,102069.66
2023-05-03T18:51:47.642Z,102072.21
2023-05-03T18:54:19.854Z,102072.44
2023-05-03T18:56:52.714Z,102078.34
2023-05-03T18:59:25.299Z,102075.55
2023-05-03T19:02:00.615Z,102079.52
2023-05-03T19:04:33.744Z,102081.77
2023-05-03T19:07:06.573Z,102081.80
2023-05-03T19:09:39.992Z,102079.01
2023-05-03T19:12:11.500Z,102077.16
2023-05-03T19:14:44.904Z,102080.74
2023-05-03T19:17:17.564Z,102081.79
2023-05-03T19:19:47.950Z,102081.50
2023-05-03T19:22:24.322Z,102082.44
2023-05-03T19:24:59.132Z,102081.53
2023-05-03T19:27:40.825Z,102082.86
2023-05-03T19:30:15.235Z,102081.80
2023-05-03T19:32:50.510Z,102085.15
2023-05-03T19:35:22.750Z,102083.10
2023-05-03T19:37:55.844Z,102084.48
2023-05-03T19:40:29.994Z,102087.38
2023-05-03T19:43:03.860Z,102089.02
2023-05-03T19:45:42.550Z,102089.95
2023-05-03T19:48:16.953Z,102090.81
2023-05-03T19:50:47.084Z,102088.71
2023-05-03T19:53:19.347Z,102087.57
2023-05-03T19:55:58.989Z,102086.47
2023-05-03T19:58:32.216Z,102089.06
2023-05-03T20:01:06.702Z,102086.32
2023-05-03T20:03:39.689Z,102089.48
2023-05-03T20:06:11.118Z,102085.54
2023-05-03T20:08:42.823Z,102088.83
2023-05-03T20:11:16.185Z,102087.67
2023-05-03T20:13:49.309Z,102086.23
2023-05-03T20:16:33.781Z,102086.88
2023-05-03T20:19:07.289Z,102087.45
2023-05-03T20:21:39.803Z,102089.73
2023-05-03T20:24:12.990Z,102084.16
2023-05-03T20:26:46.719Z,102087.86
2023-05-03T20:29:18.633Z,102086.04
2023-05-03T20:31:54.225Z,102086.98
2023-05-03T20:34:26.265Z,102091.88
2023-05-03T20:37:00.191Z,102091.21
2023-05-03T20:39:34.735Z,102092.28
2023-05-03T20:42:08.794Z,102091.95
2023-05-03T20:44:40.852Z,102091.08
2023-05-03T20:47:13.383Z,102093.83
2023-05-03T20:49:45.221Z,102095.59
2023-05-03T20:52:19.109Z,102094.86
2023-05-03T20:54:51.120Z,102094.66
2023-05-03T20:57:24.489Z,102097.60
2023-05-03T20:59:57.791Z,102099.77
2023-05-03T21:02:31.118Z,102104.02
2023-05-03T21:05:03.677Z,102104.45
2023-05-03T21:07:35.793Z,102103.17
2023-05-03T21:10:11.702Z,102098.69
2023-05-03T21:12:44.619Z,102097.95
2023-05-03T21:15:17.721Z,102096.91
2023-05-03T21:17:58.271Z,102094.85
2023-05-03T21:20:31.688Z,102093.63
2023-05-03T21:23:09.877Z,102101.17
2023-05-03T21:25:44.088Z,102102.50
2023-05-03T21:28:18.815Z,102112.34
2023-05-03T21:30:50.080Z,102105.00
2023-05-03T21:33:26.211Z,102106.26
2023-05-03T21:35:58.151Z,102103.17
2023-05-03T21:38:31.596Z,102103.02
2023-05-03T21:41:08.445Z,102098.98
2023-05-03T21:43:45.562Z,102097.98
2023-05-03T21:46:17.772Z,102098.20
2023-05-03T21:48:48.182Z,102097.11
2023-05-03T21:51:22.706Z,102098.38
2023-05-03T21:53:55.068Z,102105.36
2023-05-03T21:56:28.464Z,102106.95
2023-05-03T21:59:00.050Z,102104.85
2023-05-03T22:01:40.600Z,102105.14
2023-05-03T22:04:17.423Z,102108.06
2023-05-03T22:06:51.484Z,102108.09
2023-05-03T22:09:24.874Z,102116.19
2023-05-03T22:11:59.385Z,102124.88
2023-05-03T22:14:31.549Z,102114.46
2023-05-03T22:17:04.833Z,102118.48
2023-05-03T22:19:41.642Z,102120.00
2023-05-03T22:22:18.060Z,102115.07
2023-05-03T22:24:50.981Z,102118.30
2023-05-03T22:27:25.122Z,102115.39
2023-05-03T22:29:57.675Z,102120.45
2023-05-03T22:32:35.216Z,102122.65
2023-05-03T22:35:11.085Z,102116.44
2023-05-03T22:37:44.367Z,102123.54
2023-05-03T22:40:17.972Z,102121.38
2023-05-03T22:42:50.671Z,102119.31
2023-05-03T22:45:23.677Z,102121.00
2023-05-03T22:47:56.904Z,102121.34
2023-05-03T22:50:29.676Z,102121.55
2023-05-03T22:53:02.801Z,102119.86
2023-05-03T22:55:35.519Z,102118.33
2023-05-03T22:58:07.087Z,102118.42
2023-05-03T23:00:40.490Z,102120.07
2023-05-03T23:03:15.833Z,102121.70
2023-05-03T23:05:54.769Z,102125.39
2023-05-03T23:08:29.130Z,102122.31
2023-05-03T23:11:02.723Z,102121.25
2023-05-03T23:13:35.076Z,102117.73
2023-05-03T23:16:10.618Z,102118.19
2023-05-03T23:18:44.010Z,102111.88
2023-05-03T23:21:18.832Z,102119.05
2023-05-03T23:23:55.103Z,102115.55
2023-05-03T23:26:29.558Z,102116.36
2023-05-03T23:29:03.869Z,102116.98
2023-05-03T23:31:36.910Z,102115.44
2023-05-03T23:34:09.691Z,102117.72
2023-05-03T23:36:43.405Z,102120.90
2023-05-03T23:39:14.453Z,102115.99
2023-05-03T23:41:48.298Z,102112.97
2023-05-03T23:44:21.380Z,102111.77
2023-05-03T23:46:58.486Z,102109.27
2023-05-03T23:49:30.634Z,102107.39
2023-05-03T23:52:04.131Z,102104.11
2023-05-03T23:54:40.972Z,102103.39
2023-05-03T23:57:11.903Z,102099.14
2023-05-03T23:59:44.996Z,102099.31
